<?xml version="1.0" encoding="UTF-8" standalone="no" ?>
<gpx xmlns="http://www.topografix.com/GPX/1/1" xmlns:xsi="http://www.w3.org/2001/XMLSchema-instance" xsi:schemaLocation="http://www.topografix.com/GPX/1/1 http://www.topografix.com/GPX/1/1/gpx.xsd" version="1.1" creator="VisuGPX - https://www.visugpx.com">
  <metadata>
    <name>Voie du tram</name>
    <desc><![CDATA[De Seyssinet-Pariset à St Nizier]]></desc>
  </metadata>
  <trk>
    <name><![CDATA[Tram St-Nizier 3235 OT]]></name>
    <trkseg>
      <trkpt lat="45.17105" lon="5.67319">
        <ele>456.9</ele>
        <time>2015-09-06T07:58:36Z</time>
      </trkpt>
      <trkpt lat="45.17116" lon="5.67299">
        <ele>455.5</ele>
        <time>2015-09-06T07:58:52Z</time>
      </trkpt>
      <trkpt lat="45.17121" lon="5.67274">
        <ele>457.1</ele>
        <time>2015-09-06T07:59:13Z</time>
      </trkpt>
      <trkpt lat="45.17128" lon="5.67249">
        <ele>459.5</ele>
        <time>2015-09-06T07:59:34Z</time>
      </trkpt>
      <trkpt lat="45.17145" lon="5.6724">
        <ele>460.4</ele>
        <time>2015-09-06T07:59:54Z</time>
      </trkpt>
      <trkpt lat="45.17141" lon="5.67214">
        <ele>462.3</ele>
        <time>2015-09-06T08:00:16Z</time>
      </trkpt>
      <trkpt lat="45.17143" lon="5.67189">
        <ele>463.3</ele>
        <time>2015-09-06T08:00:36Z</time>
      </trkpt>
      <trkpt lat="45.1713" lon="5.6717">
        <ele>472.9</ele>
        <time>2015-09-06T08:02:24Z</time>
      </trkpt>
      <trkpt lat="45.1711" lon="5.67161">
        <ele>475.7</ele>
        <time>2015-09-06T08:02:42Z</time>
      </trkpt>
      <trkpt lat="45.17096" lon="5.67144">
        <ele>471.7</ele>
        <time>2015-09-06T08:03:03Z</time>
      </trkpt>
      <trkpt lat="45.17078" lon="5.67141">
        <ele>475.5</ele>
        <time>2015-09-06T08:03:22Z</time>
      </trkpt>
      <trkpt lat="45.17061" lon="5.67131">
        <ele>477.3</ele>
        <time>2015-09-06T08:03:46Z</time>
      </trkpt>
      <trkpt lat="45.17042" lon="5.67132">
        <ele>481.4</ele>
        <time>2015-09-06T08:04:01Z</time>
      </trkpt>
      <trkpt lat="45.17023" lon="5.67138">
        <ele>488.8</ele>
        <time>2015-09-06T08:05:18Z</time>
      </trkpt>
      <trkpt lat="45.17004" lon="5.67132">
        <ele>481.3</ele>
        <time>2015-09-06T08:05:42Z</time>
      </trkpt>
      <trkpt lat="45.16986" lon="5.67134">
        <ele>484.9</ele>
        <time>2015-09-06T08:06:03Z</time>
      </trkpt>
      <trkpt lat="45.16967" lon="5.6713">
        <ele>490.5</ele>
        <time>2015-09-06T08:06:24Z</time>
      </trkpt>
      <trkpt lat="45.1695" lon="5.67119">
        <ele>491.5</ele>
        <time>2015-09-06T08:06:47Z</time>
      </trkpt>
      <trkpt lat="45.16933" lon="5.6711">
        <ele>496.5</ele>
        <time>2015-09-06T08:07:09Z</time>
      </trkpt>
      <trkpt lat="45.16916" lon="5.67101">
        <ele>496.4</ele>
        <time>2015-09-06T08:07:28Z</time>
      </trkpt>
      <trkpt lat="45.16899" lon="5.67087">
        <ele>496.9</ele>
        <time>2015-09-06T08:07:53Z</time>
      </trkpt>
      <trkpt lat="45.16885" lon="5.67071">
        <ele>496</ele>
        <time>2015-09-06T08:08:14Z</time>
      </trkpt>
      <trkpt lat="45.16871" lon="5.67053">
        <ele>503.9</ele>
        <time>2015-09-06T08:08:33Z</time>
      </trkpt>
      <trkpt lat="45.16856" lon="5.67039">
        <ele>508</ele>
        <time>2015-09-06T08:08:55Z</time>
      </trkpt>
      <trkpt lat="45.16843" lon="5.67021">
        <ele>508</ele>
        <time>2015-09-06T08:09:15Z</time>
      </trkpt>
      <trkpt lat="45.1683" lon="5.67001">
        <ele>511</ele>
        <time>2015-09-06T08:09:36Z</time>
      </trkpt>
      <trkpt lat="45.16815" lon="5.66988">
        <ele>515.7</ele>
        <time>2015-09-06T08:09:56Z</time>
      </trkpt>
      <trkpt lat="45.16798" lon="5.6698">
        <ele>511.1</ele>
        <time>2015-09-06T08:10:16Z</time>
      </trkpt>
      <trkpt lat="45.16779" lon="5.66972">
        <ele>517.9</ele>
        <time>2015-09-06T08:10:34Z</time>
      </trkpt>
      <trkpt lat="45.16761" lon="5.66967">
        <ele>527</ele>
        <time>2015-09-06T08:11:03Z</time>
      </trkpt>
      <trkpt lat="45.16743" lon="5.66969">
        <ele>528.8</ele>
        <time>2015-09-06T08:11:23Z</time>
      </trkpt>
      <trkpt lat="45.16724" lon="5.66973">
        <ele>524.7</ele>
        <time>2015-09-06T08:11:44Z</time>
      </trkpt>
      <trkpt lat="45.16707" lon="5.66965">
        <ele>524</ele>
        <time>2015-09-06T08:12:09Z</time>
      </trkpt>
      <trkpt lat="45.16689" lon="5.66969">
        <ele>528.7</ele>
        <time>2015-09-06T08:12:36Z</time>
      </trkpt>
      <trkpt lat="45.16671" lon="5.66969">
        <ele>531.7</ele>
        <time>2015-09-06T08:12:53Z</time>
      </trkpt>
      <trkpt lat="45.16652" lon="5.66966">
        <ele>546.1</ele>
        <time>2015-09-06T08:13:13Z</time>
      </trkpt>
      <trkpt lat="45.16635" lon="5.66953">
        <ele>534.6</ele>
        <time>2015-09-06T08:13:24Z</time>
      </trkpt>
      <trkpt lat="45.16616" lon="5.66962">
        <ele>549.3</ele>
        <time>2015-09-06T08:13:59Z</time>
      </trkpt>
      <trkpt lat="45.166" lon="5.66952">
        <ele>547.6</ele>
        <time>2015-09-06T08:14:17Z</time>
      </trkpt>
      <trkpt lat="45.16581" lon="5.6694">
        <ele>552.3</ele>
        <time>2015-09-06T08:14:49Z</time>
      </trkpt>
      <trkpt lat="45.16564" lon="5.66937">
        <ele>560.6</ele>
        <time>2015-09-06T08:15:14Z</time>
      </trkpt>
      <trkpt lat="45.16547" lon="5.66947">
        <ele>556.7</ele>
        <time>2015-09-06T08:15:35Z</time>
      </trkpt>
      <trkpt lat="45.1653" lon="5.66956">
        <ele>561.1</ele>
        <time>2015-09-06T08:15:57Z</time>
      </trkpt>
      <trkpt lat="45.16513" lon="5.66965">
        <ele>562</ele>
        <time>2015-09-06T08:16:48Z</time>
      </trkpt>
      <trkpt lat="45.16496" lon="5.66975">
        <ele>551.4</ele>
        <time>2015-09-06T08:17:18Z</time>
      </trkpt>
      <trkpt lat="45.16478" lon="5.66981">
        <ele>549.6</ele>
        <time>2015-09-06T08:17:52Z</time>
      </trkpt>
      <trkpt lat="45.1646" lon="5.66986">
        <ele>546.6</ele>
        <time>2015-09-06T08:18:15Z</time>
      </trkpt>
      <trkpt lat="45.16443" lon="5.66997">
        <ele>544.6</ele>
        <time>2015-09-06T08:18:36Z</time>
      </trkpt>
      <trkpt lat="45.16445" lon="5.66998">
        <ele>544.3</ele>
        <time>2015-09-06T08:26:44Z</time>
      </trkpt>
      <trkpt lat="45.16431" lon="5.67016">
        <ele>541.5</ele>
        <time>2015-09-06T08:27:02Z</time>
      </trkpt>
      <trkpt lat="45.16413" lon="5.67022">
        <ele>536.6</ele>
        <time>2015-09-06T08:27:23Z</time>
      </trkpt>
      <trkpt lat="45.16395" lon="5.67025">
        <ele>534.4</ele>
        <time>2015-09-06T08:27:42Z</time>
      </trkpt>
      <trkpt lat="45.164" lon="5.6705">
        <ele>530.7</ele>
        <time>2015-09-06T08:28:31Z</time>
      </trkpt>
      <trkpt lat="45.16367" lon="5.67053">
        <ele>527.8</ele>
        <time>2015-09-06T08:28:52Z</time>
      </trkpt>
      <trkpt lat="45.16338" lon="5.67057">
        <ele>526.3</ele>
        <time>2015-09-06T08:29:11Z</time>
      </trkpt>
      <trkpt lat="45.1631" lon="5.67068">
        <ele>524.5</ele>
        <time>2015-09-06T08:29:30Z</time>
      </trkpt>
      <trkpt lat="45.16281" lon="5.67083">
        <ele>521.9</ele>
        <time>2015-09-06T08:29:52Z</time>
      </trkpt>
      <trkpt lat="45.1627" lon="5.67082">
        <ele>522.3</ele>
        <time>2015-09-06T08:30:30Z</time>
      </trkpt>
      <trkpt lat="45.16243" lon="5.67058">
        <ele>528.8</ele>
        <time>2015-09-06T08:45:09Z</time>
      </trkpt>
      <trkpt lat="45.16236" lon="5.67044">
        <ele>542.7</ele>
        <time>2015-09-06T09:04:45Z</time>
      </trkpt>
      <trkpt lat="45.16227" lon="5.67022">
        <ele>538.6</ele>
        <time>2015-09-06T09:08:09Z</time>
      </trkpt>
      <trkpt lat="45.16218" lon="5.67">
        <ele>535</ele>
        <time>2015-09-06T09:08:41Z</time>
      </trkpt>
      <trkpt lat="45.16208" lon="5.66977">
        <ele>538.3</ele>
        <time>2015-09-06T09:09:40Z</time>
      </trkpt>
      <trkpt lat="45.162" lon="5.66949">
        <ele>555</ele>
        <time>2015-09-06T09:10:26Z</time>
      </trkpt>
      <trkpt lat="45.16174" lon="5.66924">
        <ele>552.1</ele>
        <time>2015-09-06T09:20:11Z</time>
      </trkpt>
      <trkpt lat="45.16157" lon="5.66915">
        <ele>556.7</ele>
        <time>2015-09-06T09:20:42Z</time>
      </trkpt>
      <trkpt lat="45.16141" lon="5.66899">
        <ele>554.6</ele>
        <time>2015-09-06T09:20:59Z</time>
      </trkpt>
      <trkpt lat="45.16129" lon="5.6688">
        <ele>553.6</ele>
        <time>2015-09-06T09:21:15Z</time>
      </trkpt>
      <trkpt lat="45.16116" lon="5.66861">
        <ele>553.6</ele>
        <time>2015-09-06T09:21:31Z</time>
      </trkpt>
      <trkpt lat="45.16103" lon="5.66842">
        <ele>553.1</ele>
        <time>2015-09-06T09:21:47Z</time>
      </trkpt>
      <trkpt lat="45.16088" lon="5.66829">
        <ele>559.2</ele>
        <time>2015-09-06T09:22:02Z</time>
      </trkpt>
      <trkpt lat="45.16072" lon="5.66813">
        <ele>561.7</ele>
        <time>2015-09-06T09:22:18Z</time>
      </trkpt>
      <trkpt lat="45.16056" lon="5.66801">
        <ele>560.4</ele>
        <time>2015-09-06T09:22:38Z</time>
      </trkpt>
      <trkpt lat="45.1604" lon="5.66786">
        <ele>561.3</ele>
        <time>2015-09-06T09:23:15Z</time>
      </trkpt>
      <trkpt lat="45.16028" lon="5.66768">
        <ele>555.8</ele>
        <time>2015-09-06T09:23:30Z</time>
      </trkpt>
      <trkpt lat="45.16024" lon="5.66741">
        <ele>554.7</ele>
        <time>2015-09-06T09:23:46Z</time>
      </trkpt>
      <trkpt lat="45.1602" lon="5.66715">
        <ele>569.7</ele>
        <time>2015-09-06T09:24:06Z</time>
      </trkpt>
      <trkpt lat="45.16012" lon="5.66692">
        <ele>570</ele>
        <time>2015-09-06T09:25:51Z</time>
      </trkpt>
      <trkpt lat="45.15998" lon="5.66673">
        <ele>564.3</ele>
        <time>2015-09-06T09:26:10Z</time>
      </trkpt>
      <trkpt lat="45.15982" lon="5.6666">
        <ele>564.4</ele>
        <time>2015-09-06T09:26:26Z</time>
      </trkpt>
      <trkpt lat="45.15963" lon="5.66657">
        <ele>563.8</ele>
        <time>2015-09-06T09:26:42Z</time>
      </trkpt>
      <trkpt lat="45.15944" lon="5.66656">
        <ele>563</ele>
        <time>2015-09-06T09:27:02Z</time>
      </trkpt>
      <trkpt lat="45.15926" lon="5.66655">
        <ele>566.3</ele>
        <time>2015-09-06T09:27:16Z</time>
      </trkpt>
      <trkpt lat="45.15907" lon="5.66654">
        <ele>575.7</ele>
        <time>2015-09-06T09:27:36Z</time>
      </trkpt>
      <trkpt lat="45.15895" lon="5.66634">
        <ele>574.1</ele>
        <time>2015-09-06T09:28:11Z</time>
      </trkpt>
      <trkpt lat="45.1588" lon="5.66616">
        <ele>568.9</ele>
        <time>2015-09-06T09:28:26Z</time>
      </trkpt>
      <trkpt lat="45.15864" lon="5.66603">
        <ele>576.7</ele>
        <time>2015-09-06T09:28:41Z</time>
      </trkpt>
      <trkpt lat="45.1585" lon="5.66585">
        <ele>575.5</ele>
        <time>2015-09-06T09:28:56Z</time>
      </trkpt>
      <trkpt lat="45.15837" lon="5.66567">
        <ele>578.2</ele>
        <time>2015-09-06T09:29:10Z</time>
      </trkpt>
      <trkpt lat="45.15823" lon="5.6655">
        <ele>579.9</ele>
        <time>2015-09-06T09:29:26Z</time>
      </trkpt>
      <trkpt lat="45.15809" lon="5.66531">
        <ele>585</ele>
        <time>2015-09-06T09:29:43Z</time>
      </trkpt>
      <trkpt lat="45.15797" lon="5.66511">
        <ele>584.6</ele>
        <time>2015-09-06T09:29:58Z</time>
      </trkpt>
      <trkpt lat="45.15786" lon="5.66491">
        <ele>584.3</ele>
        <time>2015-09-06T09:30:13Z</time>
      </trkpt>
      <trkpt lat="45.15777" lon="5.66467">
        <ele>584.1</ele>
        <time>2015-09-06T09:30:28Z</time>
      </trkpt>
      <trkpt lat="45.15768" lon="5.66445">
        <ele>583.9</ele>
        <time>2015-09-06T09:30:43Z</time>
      </trkpt>
      <trkpt lat="45.15757" lon="5.66425">
        <ele>585.4</ele>
        <time>2015-09-06T09:30:58Z</time>
      </trkpt>
      <trkpt lat="45.1574" lon="5.66413">
        <ele>594.5</ele>
        <time>2015-09-06T09:31:15Z</time>
      </trkpt>
      <trkpt lat="45.15723" lon="5.66404">
        <ele>598.5</ele>
        <time>2015-09-06T09:31:30Z</time>
      </trkpt>
      <trkpt lat="45.1571" lon="5.66387">
        <ele>595.8</ele>
        <time>2015-09-06T09:31:44Z</time>
      </trkpt>
      <trkpt lat="45.15706" lon="5.6636">
        <ele>593.6</ele>
        <time>2015-09-06T09:31:59Z</time>
      </trkpt>
      <trkpt lat="45.15711" lon="5.66335">
        <ele>594</ele>
        <time>2015-09-06T09:32:16Z</time>
      </trkpt>
      <trkpt lat="45.15723" lon="5.66316">
        <ele>590.9</ele>
        <time>2015-09-06T09:32:46Z</time>
      </trkpt>
      <trkpt lat="45.15742" lon="5.66313">
        <ele>594.2</ele>
        <time>2015-09-06T09:33:04Z</time>
      </trkpt>
      <trkpt lat="45.15761" lon="5.66315">
        <ele>584</ele>
        <time>2015-09-06T09:33:22Z</time>
      </trkpt>
      <trkpt lat="45.1578" lon="5.66316">
        <ele>577.1</ele>
        <time>2015-09-06T09:33:34Z</time>
      </trkpt>
      <trkpt lat="45.15786" lon="5.6634">
        <ele>572.6</ele>
        <time>2015-09-06T09:33:45Z</time>
      </trkpt>
      <trkpt lat="45.15795" lon="5.66364">
        <ele>585.7</ele>
        <time>2015-09-06T09:33:56Z</time>
      </trkpt>
      <trkpt lat="45.15804" lon="5.66388">
        <ele>591.5</ele>
        <time>2015-09-06T09:34:10Z</time>
      </trkpt>
      <trkpt lat="45.15816" lon="5.66408">
        <ele>596.6</ele>
        <time>2015-09-06T09:34:24Z</time>
      </trkpt>
      <trkpt lat="45.15829" lon="5.66426">
        <ele>598.1</ele>
        <time>2015-09-06T09:34:39Z</time>
      </trkpt>
      <trkpt lat="45.15846" lon="5.66437">
        <ele>596.7</ele>
        <time>2015-09-06T09:35:35Z</time>
      </trkpt>
      <trkpt lat="45.15864" lon="5.66444">
        <ele>596.3</ele>
        <time>2015-09-06T09:35:50Z</time>
      </trkpt>
      <trkpt lat="45.15883" lon="5.66444">
        <ele>600.1</ele>
        <time>2015-09-06T09:36:08Z</time>
      </trkpt>
      <trkpt lat="45.15901" lon="5.66441">
        <ele>603.3</ele>
        <time>2015-09-06T09:36:23Z</time>
      </trkpt>
      <trkpt lat="45.1592" lon="5.66438">
        <ele>601.1</ele>
        <time>2015-09-06T09:36:38Z</time>
      </trkpt>
      <trkpt lat="45.15939" lon="5.66435">
        <ele>602.6</ele>
        <time>2015-09-06T09:36:52Z</time>
      </trkpt>
      <trkpt lat="45.15957" lon="5.6643">
        <ele>602.6</ele>
        <time>2015-09-06T09:37:07Z</time>
      </trkpt>
      <trkpt lat="45.15975" lon="5.66431">
        <ele>602.1</ele>
        <time>2015-09-06T09:37:23Z</time>
      </trkpt>
      <trkpt lat="45.15991" lon="5.66444">
        <ele>604.4</ele>
        <time>2015-09-06T09:37:40Z</time>
      </trkpt>
      <trkpt lat="45.16007" lon="5.66458">
        <ele>613</ele>
        <time>2015-09-06T09:37:55Z</time>
      </trkpt>
      <trkpt lat="45.16021" lon="5.66475">
        <ele>612</ele>
        <time>2015-09-06T09:38:09Z</time>
      </trkpt>
      <trkpt lat="45.16035" lon="5.66493">
        <ele>610</ele>
        <time>2015-09-06T09:38:24Z</time>
      </trkpt>
      <trkpt lat="45.1605" lon="5.66509">
        <ele>614.2</ele>
        <time>2015-09-06T09:38:41Z</time>
      </trkpt>
      <trkpt lat="45.16067" lon="5.66519">
        <ele>614.6</ele>
        <time>2015-09-06T09:38:56Z</time>
      </trkpt>
      <trkpt lat="45.16085" lon="5.66525">
        <ele>616.7</ele>
        <time>2015-09-06T09:39:10Z</time>
      </trkpt>
      <trkpt lat="45.16104" lon="5.66529">
        <ele>614</ele>
        <time>2015-09-06T09:39:26Z</time>
      </trkpt>
      <trkpt lat="45.16122" lon="5.66534">
        <ele>619.9</ele>
        <time>2015-09-06T09:39:41Z</time>
      </trkpt>
      <trkpt lat="45.16138" lon="5.66549">
        <ele>622.2</ele>
        <time>2015-09-06T09:39:56Z</time>
      </trkpt>
      <trkpt lat="45.16149" lon="5.66571">
        <ele>624.8</ele>
        <time>2015-09-06T09:40:12Z</time>
      </trkpt>
      <trkpt lat="45.16161" lon="5.66591">
        <ele>627.2</ele>
        <time>2015-09-06T09:40:28Z</time>
      </trkpt>
      <trkpt lat="45.16178" lon="5.66599">
        <ele>624.3</ele>
        <time>2015-09-06T09:40:44Z</time>
      </trkpt>
      <trkpt lat="45.16196" lon="5.66604">
        <ele>629.3</ele>
        <time>2015-09-06T09:41:00Z</time>
      </trkpt>
      <trkpt lat="45.16214" lon="5.66613">
        <ele>630.5</ele>
        <time>2015-09-06T09:41:22Z</time>
      </trkpt>
      <trkpt lat="45.16231" lon="5.66622">
        <ele>629.3</ele>
        <time>2015-09-06T09:41:37Z</time>
      </trkpt>
      <trkpt lat="45.16249" lon="5.66629">
        <ele>626.6</ele>
        <time>2015-09-06T09:41:53Z</time>
      </trkpt>
      <trkpt lat="45.16265" lon="5.66641">
        <ele>634.8</ele>
        <time>2015-09-06T09:42:08Z</time>
      </trkpt>
      <trkpt lat="45.16283" lon="5.66646">
        <ele>635</ele>
        <time>2015-09-06T09:42:21Z</time>
      </trkpt>
      <trkpt lat="45.163" lon="5.66654">
        <ele>631</ele>
        <time>2015-09-06T09:42:36Z</time>
      </trkpt>
      <trkpt lat="45.16315" lon="5.66669">
        <ele>631</ele>
        <time>2015-09-06T09:42:52Z</time>
      </trkpt>
      <trkpt lat="45.16328" lon="5.66687">
        <ele>634.3</ele>
        <time>2015-09-06T09:43:09Z</time>
      </trkpt>
      <trkpt lat="45.16344" lon="5.66701">
        <ele>638.4</ele>
        <time>2015-09-06T09:43:24Z</time>
      </trkpt>
      <trkpt lat="45.16362" lon="5.66706">
        <ele>638.4</ele>
        <time>2015-09-06T09:43:38Z</time>
      </trkpt>
      <trkpt lat="45.1638" lon="5.66705">
        <ele>640</ele>
        <time>2015-09-06T09:43:53Z</time>
      </trkpt>
      <trkpt lat="45.16399" lon="5.66703">
        <ele>638.5</ele>
        <time>2015-09-06T09:44:10Z</time>
      </trkpt>
      <trkpt lat="45.16417" lon="5.66696">
        <ele>635.9</ele>
        <time>2015-09-06T09:44:25Z</time>
      </trkpt>
      <trkpt lat="45.16436" lon="5.66694">
        <ele>641.4</ele>
        <time>2015-09-06T09:44:41Z</time>
      </trkpt>
      <trkpt lat="45.16455" lon="5.66693">
        <ele>643.6</ele>
        <time>2015-09-06T09:44:56Z</time>
      </trkpt>
      <trkpt lat="45.16474" lon="5.66695">
        <ele>646.7</ele>
        <time>2015-09-06T09:45:12Z</time>
      </trkpt>
      <trkpt lat="45.16493" lon="5.66695">
        <ele>645</ele>
        <time>2015-09-06T09:45:28Z</time>
      </trkpt>
      <trkpt lat="45.16511" lon="5.66689">
        <ele>645.8</ele>
        <time>2015-09-06T09:45:43Z</time>
      </trkpt>
      <trkpt lat="45.1653" lon="5.66688">
        <ele>646.6</ele>
        <time>2015-09-06T09:45:59Z</time>
      </trkpt>
      <trkpt lat="45.16548" lon="5.66683">
        <ele>646.3</ele>
        <time>2015-09-06T09:46:12Z</time>
      </trkpt>
      <trkpt lat="45.16565" lon="5.6667">
        <ele>648.6</ele>
        <time>2015-09-06T09:46:30Z</time>
      </trkpt>
      <trkpt lat="45.16576" lon="5.66651">
        <ele>645.9</ele>
        <time>2015-09-06T09:46:45Z</time>
      </trkpt>
      <trkpt lat="45.16582" lon="5.66625">
        <ele>646.7</ele>
        <time>2015-09-06T09:47:01Z</time>
      </trkpt>
      <trkpt lat="45.16592" lon="5.66603">
        <ele>648</ele>
        <time>2015-09-06T09:47:17Z</time>
      </trkpt>
      <trkpt lat="45.16604" lon="5.66584">
        <ele>660.2</ele>
        <time>2015-09-06T09:47:33Z</time>
      </trkpt>
      <trkpt lat="45.16614" lon="5.66562">
        <ele>656</ele>
        <time>2015-09-06T09:47:48Z</time>
      </trkpt>
      <trkpt lat="45.16632" lon="5.66552">
        <ele>656.1</ele>
        <time>2015-09-06T09:48:03Z</time>
      </trkpt>
      <trkpt lat="45.16649" lon="5.66543">
        <ele>660.6</ele>
        <time>2015-09-06T09:48:16Z</time>
      </trkpt>
      <trkpt lat="45.16668" lon="5.66535">
        <ele>657.2</ele>
        <time>2015-09-06T09:48:31Z</time>
      </trkpt>
      <trkpt lat="45.16687" lon="5.66528">
        <ele>663.8</ele>
        <time>2015-09-06T09:48:46Z</time>
      </trkpt>
      <trkpt lat="45.16705" lon="5.66521">
        <ele>665.2</ele>
        <time>2015-09-06T09:49:01Z</time>
      </trkpt>
      <trkpt lat="45.16723" lon="5.66513">
        <ele>668.2</ele>
        <time>2015-09-06T09:49:16Z</time>
      </trkpt>
      <trkpt lat="45.16742" lon="5.66509">
        <ele>667.4</ele>
        <time>2015-09-06T09:49:32Z</time>
      </trkpt>
      <trkpt lat="45.16759" lon="5.66522">
        <ele>660.7</ele>
        <time>2015-09-06T09:49:47Z</time>
      </trkpt>
      <trkpt lat="45.16771" lon="5.66541">
        <ele>664.9</ele>
        <time>2015-09-06T09:50:00Z</time>
      </trkpt>
      <trkpt lat="45.16784" lon="5.6656">
        <ele>667.7</ele>
        <time>2015-09-06T09:50:17Z</time>
      </trkpt>
      <trkpt lat="45.16795" lon="5.6658">
        <ele>669.8</ele>
        <time>2015-09-06T09:50:35Z</time>
      </trkpt>
      <trkpt lat="45.16809" lon="5.66597">
        <ele>669</ele>
        <time>2015-09-06T09:50:50Z</time>
      </trkpt>
      <trkpt lat="45.16827" lon="5.66602">
        <ele>670.1</ele>
        <time>2015-09-06T09:51:06Z</time>
      </trkpt>
      <trkpt lat="45.16846" lon="5.66596">
        <ele>664.7</ele>
        <time>2015-09-06T09:51:20Z</time>
      </trkpt>
      <trkpt lat="45.16864" lon="5.66589">
        <ele>666.1</ele>
        <time>2015-09-06T09:51:35Z</time>
      </trkpt>
      <trkpt lat="45.16881" lon="5.66581">
        <ele>669.3</ele>
        <time>2015-09-06T09:51:49Z</time>
      </trkpt>
      <trkpt lat="45.169" lon="5.66576">
        <ele>674.6</ele>
        <time>2015-09-06T09:52:05Z</time>
      </trkpt>
      <trkpt lat="45.16919" lon="5.66583">
        <ele>677.3</ele>
        <time>2015-09-06T09:52:20Z</time>
      </trkpt>
      <trkpt lat="45.16937" lon="5.66591">
        <ele>685.1</ele>
        <time>2015-09-06T09:52:33Z</time>
      </trkpt>
      <trkpt lat="45.16955" lon="5.66587">
        <ele>685.5</ele>
        <time>2015-09-06T09:52:47Z</time>
      </trkpt>
      <trkpt lat="45.16972" lon="5.66578">
        <ele>682.4</ele>
        <time>2015-09-06T09:53:03Z</time>
      </trkpt>
      <trkpt lat="45.16984" lon="5.66559">
        <ele>682.2</ele>
        <time>2015-09-06T09:53:22Z</time>
      </trkpt>
      <trkpt lat="45.17002" lon="5.6655">
        <ele>676.9</ele>
        <time>2015-09-06T09:54:55Z</time>
      </trkpt>
      <trkpt lat="45.17018" lon="5.66537">
        <ele>675.5</ele>
        <time>2015-09-06T09:55:08Z</time>
      </trkpt>
      <trkpt lat="45.17034" lon="5.66524">
        <ele>678.9</ele>
        <time>2015-09-06T09:55:23Z</time>
      </trkpt>
      <trkpt lat="45.17049" lon="5.66506">
        <ele>684</ele>
        <time>2015-09-06T09:55:38Z</time>
      </trkpt>
      <trkpt lat="45.1706" lon="5.66486">
        <ele>685.7</ele>
        <time>2015-09-06T09:55:52Z</time>
      </trkpt>
      <trkpt lat="45.17073" lon="5.66467">
        <ele>686.1</ele>
        <time>2015-09-06T09:56:08Z</time>
      </trkpt>
      <trkpt lat="45.17088" lon="5.66452">
        <ele>684.8</ele>
        <time>2015-09-06T09:56:26Z</time>
      </trkpt>
      <trkpt lat="45.17103" lon="5.66436">
        <ele>688.6</ele>
        <time>2015-09-06T09:57:03Z</time>
      </trkpt>
      <trkpt lat="45.1712" lon="5.66427">
        <ele>691.1</ele>
        <time>2015-09-06T09:57:19Z</time>
      </trkpt>
      <trkpt lat="45.17136" lon="5.66414">
        <ele>690.8</ele>
        <time>2015-09-06T09:57:33Z</time>
      </trkpt>
      <trkpt lat="45.17152" lon="5.66401">
        <ele>688</ele>
        <time>2015-09-06T09:57:47Z</time>
      </trkpt>
      <trkpt lat="45.17167" lon="5.66386">
        <ele>688.2</ele>
        <time>2015-09-06T09:58:00Z</time>
      </trkpt>
      <trkpt lat="45.17182" lon="5.6637">
        <ele>684.6</ele>
        <time>2015-09-06T09:58:17Z</time>
      </trkpt>
      <trkpt lat="45.172" lon="5.66364">
        <ele>684.9</ele>
        <time>2015-09-06T09:58:36Z</time>
      </trkpt>
      <trkpt lat="45.17218" lon="5.66357">
        <ele>690.3</ele>
        <time>2015-09-06T09:58:49Z</time>
      </trkpt>
      <trkpt lat="45.17235" lon="5.66351">
        <ele>688.8</ele>
        <time>2015-09-06T09:59:04Z</time>
      </trkpt>
      <trkpt lat="45.17252" lon="5.6634">
        <ele>691.1</ele>
        <time>2015-09-06T09:59:44Z</time>
      </trkpt>
      <trkpt lat="45.17266" lon="5.66323">
        <ele>692.2</ele>
        <time>2015-09-06T09:59:59Z</time>
      </trkpt>
      <trkpt lat="45.17278" lon="5.66303">
        <ele>694.2</ele>
        <time>2015-09-06T10:00:16Z</time>
      </trkpt>
      <trkpt lat="45.17281" lon="5.66277">
        <ele>692.7</ele>
        <time>2015-09-06T10:00:31Z</time>
      </trkpt>
      <trkpt lat="45.17284" lon="5.66251">
        <ele>693.2</ele>
        <time>2015-09-06T10:00:46Z</time>
      </trkpt>
      <trkpt lat="45.17283" lon="5.66225">
        <ele>696.1</ele>
        <time>2015-09-06T10:01:00Z</time>
      </trkpt>
      <trkpt lat="45.17281" lon="5.66199">
        <ele>694.8</ele>
        <time>2015-09-06T10:01:15Z</time>
      </trkpt>
      <trkpt lat="45.17279" lon="5.66173">
        <ele>699.2</ele>
        <time>2015-09-06T10:01:29Z</time>
      </trkpt>
      <trkpt lat="45.17278" lon="5.66147">
        <ele>698.1</ele>
        <time>2015-09-06T10:01:46Z</time>
      </trkpt>
      <trkpt lat="45.17279" lon="5.6612">
        <ele>706.1</ele>
        <time>2015-09-06T10:02:03Z</time>
      </trkpt>
      <trkpt lat="45.17278" lon="5.66095">
        <ele>703.5</ele>
        <time>2015-09-06T10:02:17Z</time>
      </trkpt>
      <trkpt lat="45.17279" lon="5.66069">
        <ele>707.6</ele>
        <time>2015-09-06T10:02:33Z</time>
      </trkpt>
      <trkpt lat="45.17279" lon="5.66043">
        <ele>704.4</ele>
        <time>2015-09-06T10:02:47Z</time>
      </trkpt>
      <trkpt lat="45.17274" lon="5.66018">
        <ele>702.4</ele>
        <time>2015-09-06T10:03:01Z</time>
      </trkpt>
      <trkpt lat="45.17268" lon="5.65992">
        <ele>700.6</ele>
        <time>2015-09-06T10:03:16Z</time>
      </trkpt>
      <trkpt lat="45.17264" lon="5.65968">
        <ele>701.1</ele>
        <time>2015-09-06T10:03:31Z</time>
      </trkpt>
      <trkpt lat="45.17259" lon="5.65942">
        <ele>702.6</ele>
        <time>2015-09-06T10:03:47Z</time>
      </trkpt>
      <trkpt lat="45.17258" lon="5.65916">
        <ele>706.1</ele>
        <time>2015-09-06T10:04:01Z</time>
      </trkpt>
      <trkpt lat="45.17259" lon="5.6589">
        <ele>706.6</ele>
        <time>2015-09-06T10:04:16Z</time>
      </trkpt>
      <trkpt lat="45.17267" lon="5.65866">
        <ele>705.8</ele>
        <time>2015-09-06T10:04:32Z</time>
      </trkpt>
      <trkpt lat="45.17277" lon="5.65843">
        <ele>707</ele>
        <time>2015-09-06T10:04:47Z</time>
      </trkpt>
      <trkpt lat="45.17289" lon="5.65822">
        <ele>712.5</ele>
        <time>2015-09-06T10:05:02Z</time>
      </trkpt>
      <trkpt lat="45.17303" lon="5.65805">
        <ele>717.4</ele>
        <time>2015-09-06T10:05:30Z</time>
      </trkpt>
      <trkpt lat="45.17322" lon="5.65805">
        <ele>720.4</ele>
        <time>2015-09-06T10:05:51Z</time>
      </trkpt>
      <trkpt lat="45.1734" lon="5.65811">
        <ele>721.8</ele>
        <time>2015-09-06T10:06:08Z</time>
      </trkpt>
      <trkpt lat="45.17323" lon="5.65799">
        <ele>719.9</ele>
        <time>2015-09-06T10:07:00Z</time>
      </trkpt>
      <trkpt lat="45.17346" lon="5.65758">
        <ele>718.6</ele>
        <time>2015-09-06T10:07:58Z</time>
      </trkpt>
      <trkpt lat="45.17362" lon="5.65746">
        <ele>720.8</ele>
        <time>2015-09-06T10:08:13Z</time>
      </trkpt>
      <trkpt lat="45.17379" lon="5.65734">
        <ele>723.1</ele>
        <time>2015-09-06T10:08:29Z</time>
      </trkpt>
      <trkpt lat="45.17395" lon="5.65721">
        <ele>724</ele>
        <time>2015-09-06T10:08:44Z</time>
      </trkpt>
      <trkpt lat="45.17411" lon="5.65706">
        <ele>724.9</ele>
        <time>2015-09-06T10:08:59Z</time>
      </trkpt>
      <trkpt lat="45.17425" lon="5.65688">
        <ele>726.2</ele>
        <time>2015-09-06T10:09:12Z</time>
      </trkpt>
      <trkpt lat="45.17436" lon="5.65666">
        <ele>724.6</ele>
        <time>2015-09-06T10:09:27Z</time>
      </trkpt>
      <trkpt lat="45.17444" lon="5.65642">
        <ele>723.1</ele>
        <time>2015-09-06T10:09:44Z</time>
      </trkpt>
      <trkpt lat="45.17452" lon="5.65619">
        <ele>721.6</ele>
        <time>2015-09-06T10:09:58Z</time>
      </trkpt>
      <trkpt lat="45.17457" lon="5.65594">
        <ele>724.2</ele>
        <time>2015-09-06T10:10:11Z</time>
      </trkpt>
      <trkpt lat="45.17465" lon="5.65571">
        <ele>725.9</ele>
        <time>2015-09-06T10:10:25Z</time>
      </trkpt>
      <trkpt lat="45.17475" lon="5.65549">
        <ele>725.8</ele>
        <time>2015-09-06T10:10:40Z</time>
      </trkpt>
      <trkpt lat="45.17485" lon="5.65526">
        <ele>726.6</ele>
        <time>2015-09-06T10:10:54Z</time>
      </trkpt>
      <trkpt lat="45.17496" lon="5.65506">
        <ele>728.1</ele>
        <time>2015-09-06T10:11:08Z</time>
      </trkpt>
      <trkpt lat="45.1751" lon="5.65487">
        <ele>733.9</ele>
        <time>2015-09-06T10:11:23Z</time>
      </trkpt>
      <trkpt lat="45.17523" lon="5.65469">
        <ele>735.3</ele>
        <time>2015-09-06T10:11:39Z</time>
      </trkpt>
      <trkpt lat="45.17536" lon="5.6545">
        <ele>736.5</ele>
        <time>2015-09-06T10:11:53Z</time>
      </trkpt>
      <trkpt lat="45.17547" lon="5.6543">
        <ele>738.9</ele>
        <time>2015-09-06T10:12:07Z</time>
      </trkpt>
      <trkpt lat="45.17552" lon="5.65404">
        <ele>736.5</ele>
        <time>2015-09-06T10:12:22Z</time>
      </trkpt>
      <trkpt lat="45.1755" lon="5.65378">
        <ele>743.8</ele>
        <time>2015-09-06T10:12:51Z</time>
      </trkpt>
      <trkpt lat="45.17556" lon="5.65353">
        <ele>735.6</ele>
        <time>2015-09-06T10:13:20Z</time>
      </trkpt>
      <trkpt lat="45.17539" lon="5.65365">
        <ele>741.1</ele>
        <time>2015-09-06T10:14:32Z</time>
      </trkpt>
      <trkpt lat="45.17522" lon="5.65372">
        <ele>742.4</ele>
        <time>2015-09-06T10:15:10Z</time>
      </trkpt>
      <trkpt lat="45.17504" lon="5.65378">
        <ele>741.7</ele>
        <time>2015-09-06T10:15:26Z</time>
      </trkpt>
      <trkpt lat="45.17486" lon="5.65384">
        <ele>743.4</ele>
        <time>2015-09-06T10:15:42Z</time>
      </trkpt>
      <trkpt lat="45.1747" lon="5.65398">
        <ele>744.3</ele>
        <time>2015-09-06T10:15:58Z</time>
      </trkpt>
      <trkpt lat="45.17459" lon="5.65419">
        <ele>746.2</ele>
        <time>2015-09-06T10:16:15Z</time>
      </trkpt>
      <trkpt lat="45.17452" lon="5.65443">
        <ele>749.1</ele>
        <time>2015-09-06T10:16:31Z</time>
      </trkpt>
      <trkpt lat="45.17436" lon="5.65458">
        <ele>750.5</ele>
        <time>2015-09-06T10:16:49Z</time>
      </trkpt>
      <trkpt lat="45.17421" lon="5.65473">
        <ele>752.3</ele>
        <time>2015-09-06T10:17:06Z</time>
      </trkpt>
      <trkpt lat="45.17405" lon="5.65487">
        <ele>753.5</ele>
        <time>2015-09-06T10:17:23Z</time>
      </trkpt>
      <trkpt lat="45.17387" lon="5.6549">
        <ele>752.3</ele>
        <time>2015-09-06T10:17:41Z</time>
      </trkpt>
      <trkpt lat="45.17369" lon="5.65484">
        <ele>759</ele>
        <time>2015-09-06T10:17:56Z</time>
      </trkpt>
      <trkpt lat="45.17353" lon="5.65472">
        <ele>762.1</ele>
        <time>2015-09-06T10:18:17Z</time>
      </trkpt>
      <trkpt lat="45.17335" lon="5.65477">
        <ele>766.5</ele>
        <time>2015-09-06T10:18:48Z</time>
      </trkpt>
      <trkpt lat="45.17321" lon="5.65497">
        <ele>769.9</ele>
        <time>2015-09-06T10:19:13Z</time>
      </trkpt>
      <trkpt lat="45.17307" lon="5.65513">
        <ele>768.4</ele>
        <time>2015-09-06T10:19:27Z</time>
      </trkpt>
      <trkpt lat="45.17294" lon="5.65533">
        <ele>768</ele>
        <time>2015-09-06T10:19:41Z</time>
      </trkpt>
      <trkpt lat="45.17281" lon="5.65551">
        <ele>771.6</ele>
        <time>2015-09-06T10:19:57Z</time>
      </trkpt>
      <trkpt lat="45.17267" lon="5.65569">
        <ele>771.7</ele>
        <time>2015-09-06T10:20:12Z</time>
      </trkpt>
      <trkpt lat="45.17251" lon="5.65582">
        <ele>770.1</ele>
        <time>2015-09-06T10:20:29Z</time>
      </trkpt>
      <trkpt lat="45.17236" lon="5.65595">
        <ele>771.2</ele>
        <time>2015-09-06T10:20:43Z</time>
      </trkpt>
      <trkpt lat="45.17218" lon="5.65607">
        <ele>773.2</ele>
        <time>2015-09-06T10:20:58Z</time>
      </trkpt>
      <trkpt lat="45.17201" lon="5.65616">
        <ele>772.4</ele>
        <time>2015-09-06T10:21:12Z</time>
      </trkpt>
      <trkpt lat="45.17184" lon="5.65625">
        <ele>775</ele>
        <time>2015-09-06T10:21:27Z</time>
      </trkpt>
      <trkpt lat="45.17165" lon="5.65634">
        <ele>776.8</ele>
        <time>2015-09-06T10:21:43Z</time>
      </trkpt>
      <trkpt lat="45.17042" lon="5.6569">
        <ele>795</ele>
        <time>2015-09-06T10:23:15Z</time>
      </trkpt>
      <trkpt lat="45.17017" lon="5.65734">
        <ele>799</ele>
        <time>2015-09-06T10:24:13Z</time>
      </trkpt>
      <trkpt lat="45.1698" lon="5.6593">
        <ele>825.2</ele>
        <time>2015-09-06T10:27:26Z</time>
      </trkpt>
      <trkpt lat="45.16954" lon="5.65966">
        <ele>812.1</ele>
        <time>2015-09-06T10:28:18Z</time>
      </trkpt>
      <trkpt lat="45.16938" lon="5.65979">
        <ele>808</ele>
        <time>2015-09-06T10:29:02Z</time>
      </trkpt>
      <trkpt lat="45.1692" lon="5.65985">
        <ele>812.3</ele>
        <time>2015-09-06T10:29:18Z</time>
      </trkpt>
      <trkpt lat="45.16884" lon="5.65991">
        <ele>817.3</ele>
        <time>2015-09-06T10:30:08Z</time>
      </trkpt>
      <trkpt lat="45.16867" lon="5.6598">
        <ele>807.9</ele>
        <time>2015-09-06T10:30:25Z</time>
      </trkpt>
      <trkpt lat="45.16853" lon="5.65963">
        <ele>805.8</ele>
        <time>2015-09-06T10:30:40Z</time>
      </trkpt>
      <trkpt lat="45.16839" lon="5.65947">
        <ele>806.5</ele>
        <time>2015-09-06T10:30:56Z</time>
      </trkpt>
      <trkpt lat="45.16826" lon="5.65929">
        <ele>807.1</ele>
        <time>2015-09-06T10:31:12Z</time>
      </trkpt>
      <trkpt lat="45.1681" lon="5.65913">
        <ele>807.4</ele>
        <time>2015-09-06T10:31:29Z</time>
      </trkpt>
      <trkpt lat="45.16795" lon="5.65897">
        <ele>811.8</ele>
        <time>2015-09-06T10:31:43Z</time>
      </trkpt>
      <trkpt lat="45.16782" lon="5.65879">
        <ele>815.8</ele>
        <time>2015-09-06T10:31:58Z</time>
      </trkpt>
      <trkpt lat="45.16774" lon="5.65856">
        <ele>816.2</ele>
        <time>2015-09-06T10:32:13Z</time>
      </trkpt>
      <trkpt lat="45.16763" lon="5.65834">
        <ele>817.6</ele>
        <time>2015-09-06T10:32:28Z</time>
      </trkpt>
      <trkpt lat="45.16751" lon="5.65811">
        <ele>820.2</ele>
        <time>2015-09-06T10:32:43Z</time>
      </trkpt>
      <trkpt lat="45.16739" lon="5.65792">
        <ele>821.1</ele>
        <time>2015-09-06T10:32:58Z</time>
      </trkpt>
      <trkpt lat="45.16727" lon="5.65772">
        <ele>824.9</ele>
        <time>2015-09-06T10:33:13Z</time>
      </trkpt>
      <trkpt lat="45.16712" lon="5.65756">
        <ele>820.9</ele>
        <time>2015-09-06T10:33:28Z</time>
      </trkpt>
      <trkpt lat="45.16696" lon="5.65743">
        <ele>822.7</ele>
        <time>2015-09-06T10:33:44Z</time>
      </trkpt>
      <trkpt lat="45.16683" lon="5.65725">
        <ele>822.5</ele>
        <time>2015-09-06T10:34:02Z</time>
      </trkpt>
      <trkpt lat="45.16671" lon="5.65706">
        <ele>824.5</ele>
        <time>2015-09-06T10:34:16Z</time>
      </trkpt>
      <trkpt lat="45.16655" lon="5.65691">
        <ele>830.6</ele>
        <time>2015-09-06T10:34:36Z</time>
      </trkpt>
      <trkpt lat="45.16639" lon="5.6568">
        <ele>836.1</ele>
        <time>2015-09-06T10:34:51Z</time>
      </trkpt>
      <trkpt lat="45.16621" lon="5.65674">
        <ele>839.9</ele>
        <time>2015-09-06T10:35:07Z</time>
      </trkpt>
      <trkpt lat="45.16602" lon="5.65674">
        <ele>837</ele>
        <time>2015-09-06T10:35:22Z</time>
      </trkpt>
      <trkpt lat="45.16585" lon="5.65682">
        <ele>842.9</ele>
        <time>2015-09-06T10:35:42Z</time>
      </trkpt>
      <trkpt lat="45.16567" lon="5.65689">
        <ele>842</ele>
        <time>2015-09-06T10:35:59Z</time>
      </trkpt>
      <trkpt lat="45.16549" lon="5.65697">
        <ele>841.3</ele>
        <time>2015-09-06T10:36:15Z</time>
      </trkpt>
      <trkpt lat="45.1653" lon="5.65704">
        <ele>842.1</ele>
        <time>2015-09-06T10:36:31Z</time>
      </trkpt>
      <trkpt lat="45.16512" lon="5.6571">
        <ele>838.4</ele>
        <time>2015-09-06T10:36:45Z</time>
      </trkpt>
      <trkpt lat="45.16494" lon="5.65713">
        <ele>844.9</ele>
        <time>2015-09-06T10:37:01Z</time>
      </trkpt>
      <trkpt lat="45.16476" lon="5.65717">
        <ele>844.2</ele>
        <time>2015-09-06T10:37:15Z</time>
      </trkpt>
      <trkpt lat="45.16457" lon="5.65722">
        <ele>845.6</ele>
        <time>2015-09-06T10:37:30Z</time>
      </trkpt>
      <trkpt lat="45.16439" lon="5.65727">
        <ele>845.6</ele>
        <time>2015-09-06T10:37:44Z</time>
      </trkpt>
      <trkpt lat="45.1642" lon="5.65729">
        <ele>849.6</ele>
        <time>2015-09-06T10:38:01Z</time>
      </trkpt>
      <trkpt lat="45.16401" lon="5.6573">
        <ele>847.6</ele>
        <time>2015-09-06T10:38:17Z</time>
      </trkpt>
      <trkpt lat="45.16383" lon="5.65723">
        <ele>846.3</ele>
        <time>2015-09-06T10:38:32Z</time>
      </trkpt>
      <trkpt lat="45.16364" lon="5.6572">
        <ele>844.6</ele>
        <time>2015-09-06T10:38:47Z</time>
      </trkpt>
      <trkpt lat="45.16346" lon="5.65725">
        <ele>852.9</ele>
        <time>2015-09-06T10:39:03Z</time>
      </trkpt>
      <trkpt lat="45.16327" lon="5.65725">
        <ele>852.9</ele>
        <time>2015-09-06T10:39:24Z</time>
      </trkpt>
      <trkpt lat="45.16307" lon="5.65723">
        <ele>854.2</ele>
        <time>2015-09-06T10:39:41Z</time>
      </trkpt>
      <trkpt lat="45.1629" lon="5.65715">
        <ele>854</ele>
        <time>2015-09-06T10:39:58Z</time>
      </trkpt>
      <trkpt lat="45.16275" lon="5.657">
        <ele>855.9</ele>
        <time>2015-09-06T10:40:14Z</time>
      </trkpt>
      <trkpt lat="45.16261" lon="5.65681">
        <ele>855.8</ele>
        <time>2015-09-06T10:40:30Z</time>
      </trkpt>
      <trkpt lat="45.16248" lon="5.65663">
        <ele>857.2</ele>
        <time>2015-09-06T10:40:46Z</time>
      </trkpt>
      <trkpt lat="45.16235" lon="5.65644">
        <ele>856.7</ele>
        <time>2015-09-06T10:41:03Z</time>
      </trkpt>
      <trkpt lat="45.16217" lon="5.65634">
        <ele>861.7</ele>
        <time>2015-09-06T10:41:21Z</time>
      </trkpt>
      <trkpt lat="45.162" lon="5.65626">
        <ele>864.5</ele>
        <time>2015-09-06T10:41:39Z</time>
      </trkpt>
      <trkpt lat="45.16181" lon="5.65625">
        <ele>862.8</ele>
        <time>2015-09-06T10:41:58Z</time>
      </trkpt>
      <trkpt lat="45.16162" lon="5.65628">
        <ele>863.1</ele>
        <time>2015-09-06T10:42:15Z</time>
      </trkpt>
      <trkpt lat="45.16143" lon="5.65631">
        <ele>865.4</ele>
        <time>2015-09-06T10:42:29Z</time>
      </trkpt>
      <trkpt lat="45.16127" lon="5.65618">
        <ele>862.7</ele>
        <time>2015-09-06T10:42:46Z</time>
      </trkpt>
      <trkpt lat="45.16111" lon="5.65605">
        <ele>869.9</ele>
        <time>2015-09-06T10:43:00Z</time>
      </trkpt>
      <trkpt lat="45.16103" lon="5.65582">
        <ele>868.6</ele>
        <time>2015-09-06T10:43:16Z</time>
      </trkpt>
      <trkpt lat="45.16097" lon="5.65557">
        <ele>872.8</ele>
        <time>2015-09-06T10:43:34Z</time>
      </trkpt>
      <trkpt lat="45.16101" lon="5.65532">
        <ele>875.1</ele>
        <time>2015-09-06T10:43:50Z</time>
      </trkpt>
      <trkpt lat="45.16107" lon="5.65508">
        <ele>875.6</ele>
        <time>2015-09-06T10:44:04Z</time>
      </trkpt>
      <trkpt lat="45.16118" lon="5.65486">
        <ele>874.6</ele>
        <time>2015-09-06T10:44:20Z</time>
      </trkpt>
      <trkpt lat="45.16135" lon="5.65476">
        <ele>875</ele>
        <time>2015-09-06T10:44:37Z</time>
      </trkpt>
      <trkpt lat="45.16154" lon="5.65477">
        <ele>878.8</ele>
        <time>2015-09-06T10:44:59Z</time>
      </trkpt>
      <trkpt lat="45.16172" lon="5.65485">
        <ele>875.7</ele>
        <time>2015-09-06T10:45:16Z</time>
      </trkpt>
      <trkpt lat="45.16186" lon="5.65501">
        <ele>876.8</ele>
        <time>2015-09-06T10:45:28Z</time>
      </trkpt>
      <trkpt lat="45.16198" lon="5.65521">
        <ele>877.4</ele>
        <time>2015-09-06T10:45:43Z</time>
      </trkpt>
      <trkpt lat="45.16213" lon="5.65536">
        <ele>877.9</ele>
        <time>2015-09-06T10:45:58Z</time>
      </trkpt>
      <trkpt lat="45.16228" lon="5.65553">
        <ele>878.1</ele>
        <time>2015-09-06T10:46:14Z</time>
      </trkpt>
      <trkpt lat="45.16244" lon="5.65567">
        <ele>879.6</ele>
        <time>2015-09-06T10:46:32Z</time>
      </trkpt>
      <trkpt lat="45.16261" lon="5.65583">
        <ele>883.5</ele>
        <time>2015-09-06T10:46:50Z</time>
      </trkpt>
      <trkpt lat="45.16277" lon="5.65594">
        <ele>883</ele>
        <time>2015-09-06T10:47:04Z</time>
      </trkpt>
      <trkpt lat="45.16292" lon="5.65609">
        <ele>880.7</ele>
        <time>2015-09-06T10:47:20Z</time>
      </trkpt>
      <trkpt lat="45.1631" lon="5.65617">
        <ele>881.3</ele>
        <time>2015-09-06T10:47:38Z</time>
      </trkpt>
      <trkpt lat="45.16328" lon="5.65616">
        <ele>882.4</ele>
        <time>2015-09-06T10:47:52Z</time>
      </trkpt>
      <trkpt lat="45.16345" lon="5.65609">
        <ele>878.7</ele>
        <time>2015-09-06T10:48:07Z</time>
      </trkpt>
      <trkpt lat="45.16362" lon="5.65597">
        <ele>881</ele>
        <time>2015-09-06T10:48:20Z</time>
      </trkpt>
      <trkpt lat="45.16377" lon="5.65583">
        <ele>884.3</ele>
        <time>2015-09-06T10:48:34Z</time>
      </trkpt>
      <trkpt lat="45.1639" lon="5.65563">
        <ele>883.5</ele>
        <time>2015-09-06T10:48:52Z</time>
      </trkpt>
      <trkpt lat="45.16404" lon="5.65546">
        <ele>884.1</ele>
        <time>2015-09-06T10:49:09Z</time>
      </trkpt>
      <trkpt lat="45.1642" lon="5.65532">
        <ele>892.9</ele>
        <time>2015-09-06T10:49:31Z</time>
      </trkpt>
      <trkpt lat="45.16438" lon="5.65528">
        <ele>893</ele>
        <time>2015-09-06T10:49:46Z</time>
      </trkpt>
      <trkpt lat="45.16457" lon="5.65526">
        <ele>895</ele>
        <time>2015-09-06T10:50:02Z</time>
      </trkpt>
      <trkpt lat="45.16474" lon="5.6552">
        <ele>894</ele>
        <time>2015-09-06T10:50:17Z</time>
      </trkpt>
      <trkpt lat="45.16492" lon="5.65511">
        <ele>893.9</ele>
        <time>2015-09-06T10:50:32Z</time>
      </trkpt>
      <trkpt lat="45.16509" lon="5.65502">
        <ele>895.1</ele>
        <time>2015-09-06T10:50:45Z</time>
      </trkpt>
      <trkpt lat="45.16525" lon="5.65487">
        <ele>895.4</ele>
        <time>2015-09-06T10:50:59Z</time>
      </trkpt>
      <trkpt lat="45.16539" lon="5.65471">
        <ele>894.5</ele>
        <time>2015-09-06T10:51:14Z</time>
      </trkpt>
      <trkpt lat="45.16553" lon="5.65453">
        <ele>897.3</ele>
        <time>2015-09-06T10:51:29Z</time>
      </trkpt>
      <trkpt lat="45.16568" lon="5.65439">
        <ele>900</ele>
        <time>2015-09-06T10:51:45Z</time>
      </trkpt>
      <trkpt lat="45.16583" lon="5.65424">
        <ele>902.1</ele>
        <time>2015-09-06T10:52:00Z</time>
      </trkpt>
      <trkpt lat="45.16598" lon="5.65408">
        <ele>908.3</ele>
        <time>2015-09-06T10:52:20Z</time>
      </trkpt>
      <trkpt lat="45.16617" lon="5.65403">
        <ele>909</ele>
        <time>2015-09-06T10:52:40Z</time>
      </trkpt>
      <trkpt lat="45.16635" lon="5.65395">
        <ele>908.8</ele>
        <time>2015-09-06T10:52:56Z</time>
      </trkpt>
      <trkpt lat="45.16653" lon="5.65383">
        <ele>906.2</ele>
        <time>2015-09-06T10:53:11Z</time>
      </trkpt>
      <trkpt lat="45.16667" lon="5.65368">
        <ele>907.4</ele>
        <time>2015-09-06T10:53:26Z</time>
      </trkpt>
      <trkpt lat="45.16675" lon="5.65345">
        <ele>908.4</ele>
        <time>2015-09-06T10:53:45Z</time>
      </trkpt>
      <trkpt lat="45.1668" lon="5.6532">
        <ele>907.3</ele>
        <time>2015-09-06T10:54:07Z</time>
      </trkpt>
      <trkpt lat="45.16682" lon="5.65294">
        <ele>911.9</ele>
        <time>2015-09-06T10:54:32Z</time>
      </trkpt>
      <trkpt lat="45.1669" lon="5.65271">
        <ele>922.6</ele>
        <time>2015-09-06T10:55:08Z</time>
      </trkpt>
      <trkpt lat="45.16701" lon="5.6525">
        <ele>921.9</ele>
        <time>2015-09-06T10:55:27Z</time>
      </trkpt>
      <trkpt lat="45.16718" lon="5.65239">
        <ele>919.7</ele>
        <time>2015-09-06T10:55:47Z</time>
      </trkpt>
      <trkpt lat="45.16735" lon="5.65227">
        <ele>917.9</ele>
        <time>2015-09-06T10:56:02Z</time>
      </trkpt>
      <trkpt lat="45.16747" lon="5.65208">
        <ele>909.7</ele>
        <time>2015-09-06T10:56:19Z</time>
      </trkpt>
      <trkpt lat="45.16761" lon="5.65189">
        <ele>906</ele>
        <time>2015-09-06T10:56:35Z</time>
      </trkpt>
      <trkpt lat="45.16763" lon="5.65164">
        <ele>900.9</ele>
        <time>2015-09-06T10:56:56Z</time>
      </trkpt>
      <trkpt lat="45.16766" lon="5.65138">
        <ele>899.3</ele>
        <time>2015-09-06T10:57:30Z</time>
      </trkpt>
      <trkpt lat="45.16773" lon="5.65114">
        <ele>901.5</ele>
        <time>2015-09-06T10:57:49Z</time>
      </trkpt>
      <trkpt lat="45.16781" lon="5.6509">
        <ele>905.1</ele>
        <time>2015-09-06T10:58:06Z</time>
      </trkpt>
      <trkpt lat="45.16791" lon="5.65068">
        <ele>902.6</ele>
        <time>2015-09-06T10:58:24Z</time>
      </trkpt>
      <trkpt lat="45.16799" lon="5.65044">
        <ele>904.1</ele>
        <time>2015-09-06T10:58:42Z</time>
      </trkpt>
      <trkpt lat="45.16797" lon="5.65019">
        <ele>907.3</ele>
        <time>2015-09-06T10:59:00Z</time>
      </trkpt>
      <trkpt lat="45.16793" lon="5.64994">
        <ele>911.9</ele>
        <time>2015-09-06T10:59:19Z</time>
      </trkpt>
      <trkpt lat="45.16787" lon="5.64969">
        <ele>922.5</ele>
        <time>2015-09-06T10:59:55Z</time>
      </trkpt>
      <trkpt lat="45.16779" lon="5.64946">
        <ele>929.9</ele>
        <time>2015-09-06T11:00:26Z</time>
      </trkpt>
      <trkpt lat="45.1677" lon="5.64923">
        <ele>939.5</ele>
        <time>2015-09-06T11:01:04Z</time>
      </trkpt>
      <trkpt lat="45.16766" lon="5.64898">
        <ele>935.5</ele>
        <time>2015-09-06T11:01:31Z</time>
      </trkpt>
      <trkpt lat="45.16774" lon="5.64875">
        <ele>935.7</ele>
        <time>2015-09-06T11:01:53Z</time>
      </trkpt>
      <trkpt lat="45.16787" lon="5.64855">
        <ele>936.4</ele>
        <time>2015-09-06T11:02:12Z</time>
      </trkpt>
      <trkpt lat="45.16795" lon="5.64831">
        <ele>935.6</ele>
        <time>2015-09-06T11:02:29Z</time>
      </trkpt>
      <trkpt lat="45.16805" lon="5.64809">
        <ele>934</ele>
        <time>2015-09-06T11:02:48Z</time>
      </trkpt>
      <trkpt lat="45.16818" lon="5.6479">
        <ele>937.3</ele>
        <time>2015-09-06T11:03:04Z</time>
      </trkpt>
      <trkpt lat="45.1683" lon="5.64771">
        <ele>937.6</ele>
        <time>2015-09-06T11:03:31Z</time>
      </trkpt>
      <trkpt lat="45.16839" lon="5.64748">
        <ele>941.7</ele>
        <time>2015-09-06T11:03:55Z</time>
      </trkpt>
      <trkpt lat="45.16848" lon="5.64725">
        <ele>943</ele>
        <time>2015-09-06T11:04:14Z</time>
      </trkpt>
      <trkpt lat="45.16859" lon="5.64703">
        <ele>941.4</ele>
        <time>2015-09-06T11:04:33Z</time>
      </trkpt>
      <trkpt lat="45.16874" lon="5.64687">
        <ele>943.2</ele>
        <time>2015-09-06T11:04:50Z</time>
      </trkpt>
      <trkpt lat="45.16891" lon="5.64677">
        <ele>947.4</ele>
        <time>2015-09-06T11:05:07Z</time>
      </trkpt>
      <trkpt lat="45.16908" lon="5.64669">
        <ele>951.1</ele>
        <time>2015-09-06T11:05:24Z</time>
      </trkpt>
      <trkpt lat="45.16926" lon="5.64664">
        <ele>949.3</ele>
        <time>2015-09-06T11:05:42Z</time>
      </trkpt>
      <trkpt lat="45.16944" lon="5.64656">
        <ele>950.1</ele>
        <time>2015-09-06T11:06:02Z</time>
      </trkpt>
      <trkpt lat="45.16963" lon="5.64658">
        <ele>951.5</ele>
        <time>2015-09-06T11:06:18Z</time>
      </trkpt>
      <trkpt lat="45.17025" lon="5.64698">
        <ele>951.5</ele>
        <time>2015-09-06T11:06:18Z</time>
      </trkpt>
      <trkpt lat="45.17051" lon="5.64715">
        <ele>943.7</ele>
        <time>2015-09-06T11:06:18Z</time>
      </trkpt>
      <trkpt lat="45.17108" lon="5.6465">
        <ele>961</ele>
        <time>2015-09-06T11:06:18Z</time>
      </trkpt>
      <trkpt lat="45.17146" lon="5.64642">
        <ele>964.6</ele>
        <time>2015-09-06T11:06:18Z</time>
      </trkpt>
      <trkpt lat="45.17189" lon="5.64641">
        <ele>966.9</ele>
        <time>2015-09-06T11:06:18Z</time>
      </trkpt>
      <trkpt lat="45.17235" lon="5.64625">
        <ele>973.2</ele>
        <time>2015-09-06T11:06:18Z</time>
      </trkpt>
      <trkpt lat="45.1721" lon="5.64582">
        <ele>982.2</ele>
        <time>2015-09-06T11:06:18Z</time>
      </trkpt>
      <trkpt lat="45.1726" lon="5.64588">
        <ele>982.1</ele>
        <time>2015-09-06T11:06:18Z</time>
      </trkpt>
      <trkpt lat="45.17309" lon="5.6455">
        <ele>989.6</ele>
        <time>2015-09-06T11:06:18Z</time>
      </trkpt>
      <trkpt lat="45.17378" lon="5.64515">
        <ele>997.3</ele>
        <time>2015-09-06T11:06:18Z</time>
      </trkpt>
      <trkpt lat="45.17383" lon="5.64487">
        <ele>1003.6</ele>
        <time>2015-09-06T11:06:18Z</time>
      </trkpt>
      <trkpt lat="45.17281" lon="5.64487">
        <ele>1003.3</ele>
        <time>2015-09-06T11:06:18Z</time>
      </trkpt>
      <trkpt lat="45.17397" lon="5.64414">
        <ele>1023</ele>
        <time>2015-09-06T11:06:18Z</time>
      </trkpt>
      <trkpt lat="45.1746" lon="5.64412">
        <ele>1024.6</ele>
        <time>2015-09-06T11:06:18Z</time>
      </trkpt>
      <trkpt lat="45.17553" lon="5.64391">
        <ele>1032.7</ele>
        <time>2015-09-06T11:06:18Z</time>
      </trkpt>
      <trkpt lat="45.17605" lon="5.64376">
        <ele>1041.5</ele>
        <time>2015-09-06T11:06:18Z</time>
      </trkpt>
      <trkpt lat="45.17631" lon="5.6439">
        <ele>1042.3</ele>
        <time>2015-09-06T11:06:18Z</time>
      </trkpt>
      <trkpt lat="45.17709" lon="5.64302">
        <ele>1055.6</ele>
        <time>2015-09-06T11:06:18Z</time>
      </trkpt>
      <trkpt lat="45.17762" lon="5.64188">
        <ele>1055.5</ele>
        <time>2015-09-06T11:06:18Z</time>
      </trkpt>
      <trkpt lat="45.17762" lon="5.64028">
        <ele>1058.7</ele>
        <time>2015-09-06T11:06:18Z</time>
      </trkpt>
      <trkpt lat="45.17802" lon="5.64028">
        <ele>1059.8</ele>
        <time>2015-09-06T11:06:18Z</time>
      </trkpt>
      <trkpt lat="45.1781" lon="5.63969">
        <ele>1061.7</ele>
        <time>2015-09-06T11:06:18Z</time>
      </trkpt>
      <trkpt lat="45.17828" lon="5.63919">
        <ele>1063.6</ele>
        <time>2015-09-06T11:06:18Z</time>
      </trkpt>
      <trkpt lat="45.17819" lon="5.63819">
        <ele>1059.7</ele>
        <time>2015-09-06T11:06:18Z</time>
      </trkpt>
      <trkpt lat="45.17798" lon="5.63777">
        <ele>1055</ele>
        <time>2015-09-06T11:06:18Z</time>
      </trkpt>
      <trkpt lat="45.1779" lon="5.63705">
        <ele>1052.5</ele>
        <time>2015-09-06T11:06:18Z</time>
      </trkpt>
      <trkpt lat="45.17766" lon="5.63624">
        <ele>1055.4</ele>
        <time>2015-09-06T11:06:18Z</time>
      </trkpt>
      <trkpt lat="45.1768" lon="5.63638">
        <ele>1057.2</ele>
        <time>2015-09-06T11:06:18Z</time>
      </trkpt>
      <trkpt lat="45.1761" lon="5.63612">
        <ele>1060.7</ele>
        <time>2015-09-06T11:06:18Z</time>
      </trkpt>
      <trkpt lat="45.17532" lon="5.63608">
        <ele>1066.3</ele>
        <time>2015-09-06T11:06:18Z</time>
      </trkpt>
      <trkpt lat="45.1739" lon="5.63667">
        <ele>1085.9</ele>
        <time>2015-09-06T11:06:18Z</time>
      </trkpt>
      <trkpt lat="45.17332" lon="5.6362">
        <ele>1092.4</ele>
        <time>2015-09-06T11:06:18Z</time>
      </trkpt>
      <trkpt lat="45.1731" lon="5.63465">
        <ele>1101</ele>
        <time>2015-09-06T11:06:18Z</time>
      </trkpt>
      <trkpt lat="45.17292" lon="5.63278">
        <ele>1128</ele>
        <time>2015-09-06T11:06:18Z</time>
      </trkpt>
      <trkpt lat="45.17238" lon="5.63218">
        <ele>1144.5</ele>
        <time>2015-09-06T11:06:18Z</time>
      </trkpt>
      <trkpt lat="45.17212" lon="5.63022">
        <ele>1145.3</ele>
        <time>2015-09-06T11:06:18Z</time>
      </trkpt>
      <trkpt lat="45.17118" lon="5.63029">
        <ele>1155.7</ele>
        <time>2015-09-06T11:06:18Z</time>
      </trkpt>
      <trkpt lat="45.17067" lon="5.62935">
        <ele>1160.1</ele>
        <time>2015-09-06T11:06:18Z</time>
      </trkpt>
      <trkpt lat="45.17055" lon="5.63">
        <ele>1160.4</ele>
        <time>2015-09-06T11:06:18Z</time>
      </trkpt>
      <trkpt lat="45.16866" lon="5.63045">
        <ele>1169.1</ele>
        <time>2015-09-06T11:06:18Z</time>
      </trkpt>
    </trkseg>
  </trk>
</gpx>